sensor_id;sensor_type;location;lat;lon;timestamp;pressure;altitude;pressure_sealevel;temperature;humidity
59289;BME280;45056;47.602;9.886;2023-02-22T00:00:59;92798.16;;;5.76;53.22
59289;BME280;45056;47.602;9.886;2023-02-22T00:03:33;92801.34;;;5.71;53.48
59289;BME280;45056;47.602;9.886;2023-02-22T00:06:05;92798.72;;;5.68;53.41
59289;BME280;45056;47.602;9.886;2023-02-22T00:08:35;92802.25;;;5.65;53.39
59289;BME280;45056;47.602;9.886;2023-02-22T00:11:06;92804.22;;;5.60;53.62
59289;BME280;45056;47.602;9.886;2023-02-22T00:13:36;92800.84;;;5.56;53.54
59289;BME280;45056;47.602;9.886;2023-02-22T00:16:05;92797.78;;;5.54;53.48
59289;BME280;45056;47.602;9.886;2023-02-22T00:18:34;92796.69;;;5.52;53.68
59289;BME280;45056;47.602;9.886;2023-02-22T00:21:04;92796.34;;;5.49;53.88
59289;BME280;45056;47.602;9.886;2023-02-22T00:23:39;92794.47;;;5.46;53.91
59289;BME280;45056;47.602;9.886;2023-02-22T00:26:13;92793.34;;;5.44;53.74
59289;BME280;45056;47.602;9.886;2023-02-22T00:28:46;92787.59;;;5.42;53.81
59289;BME280;45056;47.602;9.886;2023-02-22T00:31:16;92781.03;;;5.43;53.60
59289;BME280;45056;47.602;9.886;2023-02-22T00:33:45;92786.06;;;5.41;53.61
59289;BME280;45056;47.602;9.886;2023-02-22T00:36:14;92781.91;;;5.36;53.76
59289;BME280;45056;47.602;9.886;2023-02-22T00:38:42;92785.78;;;5.35;53.79
59289;BME280;45056;47.602;9.886;2023-02-22T00:41:11;92784.69;;;5.32;54.00
59289;BME280;45056;47.602;9.886;2023-02-22T00:43:39;92779.28;;;5.32;53.98
59289;BME280;45056;47.602;9.886;2023-02-22T00:46:07;92781.25;;;5.28;54.20
59289;BME280;45056;47.602;9.886;2023-02-22T00:48:39;92783.25;;;5.24;54.26
59289;BME280;45056;47.602;9.886;2023-02-22T00:51:10;92774.47;;;5.20;54.33
59289;BME280;45056;47.602;9.886;2023-02-22T00:53:39;92771.41;;;5.18;54.46
59289;BME280;45056;47.602;9.886;2023-02-22T00:56:07;92776.06;;;5.17;54.32
59289;BME280;45056;47.602;9.886;2023-02-22T00:58:37;92777.63;;;5.15;54.44
59289;BME280;45056;47.602;9.886;2023-02-22T01:01:05;92779.16;;;5.16;54.42
59289;BME280;45056;47.602;9.886;2023-02-22T01:03:33;92774.16;;;5.14;54.46
59289;BME280;45056;47.602;9.886;2023-02-22T01:06:01;92777.63;;;5.15;54.39
59289;BME280;45056;47.602;9.886;2023-02-22T01:08:29;92776.88;;;5.14;54.29
59289;BME280;45056;47.602;9.886;2023-02-22T01:10:59;92775.00;;;5.11;54.02
59289;BME280;45056;47.602;9.886;2023-02-22T01:13:27;92780.09;;;5.05;53.92
59289;BME280;45056;47.602;9.886;2023-02-22T01:15:55;92776.28;;;5.03;54.15
59289;BME280;45056;47.602;9.886;2023-02-22T01:18:24;92779.81;;;5.00;54.19
59289;BME280;45056;47.602;9.886;2023-02-22T01:20:52;92782.53;;;4.96;54.19
59289;BME280;45056;47.602;9.886;2023-02-22T01:23:20;92778.78;;;4.90;54.20
59289;BME280;45056;47.602;9.886;2023-02-22T01:25:48;92777.38;;;4.82;54.59
59289;BME280;45056;47.602;9.886;2023-02-22T01:28:18;92773.28;;;4.73;54.63
59289;BME280;45056;47.602;9.886;2023-02-22T01:30:48;92774.84;;;4.71;54.96
59289;BME280;45056;47.602;9.886;2023-02-22T01:33:16;92775.25;;;4.69;54.99
59289;BME280;45056;47.602;9.886;2023-02-22T01:35:44;92769.88;;;4.69;55.19
59289;BME280;45056;47.602;9.886;2023-02-22T01:38:12;92763.31;;;4.70;54.94
59289;BME280;45056;47.602;9.886;2023-02-22T01:40:42;92766.75;;;4.71;55.26
59289;BME280;45056;47.602;9.886;2023-02-22T01:43:20;92762.53;;;4.70;54.98
59289;BME280;45056;47.602;9.886;2023-02-22T01:45:57;92757.56;;;4.68;55.35
59289;BME280;45056;47.602;9.886;2023-02-22T01:48:33;92754.13;;;4.64;55.11
59289;BME280;45056;47.602;9.886;2023-02-22T01:51:09;92752.25;;;4.61;55.08
59289;BME280;45056;47.602;9.886;2023-02-22T01:53:46;92753.03;;;4.61;55.18
59289;BME280;45056;47.602;9.886;2023-02-22T01:56:21;92746.88;;;4.61;55.32
59289;BME280;45056;47.602;9.886;2023-02-22T01:58:58;92744.19;;;4.61;55.30
59289;BME280;45056;47.602;9.886;2023-02-22T02:01:32;92746.13;;;4.60;55.20
59289;BME280;45056;47.602;9.886;2023-02-22T02:04:06;92734.56;;;4.60;55.21
59289;BME280;45056;47.602;9.886;2023-02-22T02:06:38;92738.44;;;4.59;55.07
59289;BME280;45056;47.602;9.886;2023-02-22T02:09:13;92739.97;;;4.60;55.06
59289;BME280;45056;47.602;9.886;2023-02-22T02:11:48;92733.81;;;4.59;55.03
59289;BME280;45056;47.602;9.886;2023-02-22T02:14:18;92736.16;;;4.57;55.07
59289;BME280;45056;47.602;9.886;2023-02-22T02:16:49;92733.13;;;4.55;55.15
59289;BME280;45056;47.602;9.886;2023-02-22T02:19:26;92735.81;;;4.55;54.98
59289;BME280;45056;47.602;9.886;2023-02-22T02:22:20;92733.91;;;4.52;54.32
59289;BME280;45056;47.602;9.886;2023-02-22T02:28:41;92725.44;;;4.54;54.40
59289;BME280;45056;47.602;9.886;2023-02-22T02:32:14;92716.59;;;4.53;54.12
59289;BME280;45056;47.602;9.886;2023-02-22T02:35:06;92711.25;;;4.50;54.57
59289;BME280;45056;47.602;9.886;2023-02-22T02:37:48;92710.94;;;4.44;54.68
59289;BME280;45056;47.602;9.886;2023-02-22T02:40:31;92707.97;;;4.38;54.96
59289;BME280;45056;47.602;9.886;2023-02-22T02:43:14;92699.56;;;4.32;55.39
59289;BME280;45056;47.602;9.886;2023-02-22T02:45:54;92696.91;;;4.29;55.09
59289;BME280;45056;47.602;9.886;2023-02-22T02:48:33;92696.53;;;4.30;55.10
59289;BME280;45056;47.602;9.886;2023-02-22T02:51:09;92694.94;;;4.33;54.85
59289;BME280;45056;47.602;9.886;2023-02-22T02:53:45;92696.44;;;4.34;54.94
59289;BME280;45056;47.602;9.886;2023-02-22T02:56:16;92686.44;;;4.35;55.12
59289;BME280;45056;47.602;9.886;2023-02-22T02:58:47;92688.78;;;4.32;55.16
59289;BME280;45056;47.602;9.886;2023-02-22T03:01:34;92696.53;;;4.30;55.17
59289;BME280;45056;47.602;9.886;2023-02-22T03:04:36;92692.69;;;4.28;55.08
59289;BME280;45056;47.602;9.886;2023-02-22T03:07:28;92689.66;;;4.26;55.03
59289;BME280;45056;47.602;9.886;2023-02-22T03:10:26;92688.47;;;4.27;54.82
59289;BME280;45056;47.602;9.886;2023-02-22T03:13:11;92691.16;;;4.27;55.02
59289;BME280;45056;47.602;9.886;2023-02-22T03:15:51;92681.91;;;4.28;54.79
59289;BME280;45056;47.602;9.886;2023-02-22T03:18:37;92684.97;;;4.30;54.77
59289;BME280;45056;47.602;9.886;2023-02-22T03:21:25;92683.81;;;4.31;54.72
59289;BME280;45056;47.602;9.886;2023-02-22T03:24:06;92682.28;;;4.30;54.88
59289;BME280;45056;47.602;9.886;2023-02-22T03:26:44;92686.22;;;4.25;54.85
59289;BME280;45056;47.602;9.886;2023-02-22T03:29:21;92683.56;;;4.22;54.88
59289;BME280;45056;47.602;9.886;2023-02-22T03:31:56;92686.25;;;4.22;54.58
59289;BME280;45056;47.602;9.886;2023-02-22T03:34:31;92675.88;;;4.20;54.94
59289;BME280;45056;47.602;9.886;2023-02-22T03:37:13;92666.69;;;4.17;54.83
59289;BME280;45056;47.602;9.886;2023-02-22T03:39:48;92667.84;;;4.16;54.90
59289;BME280;45056;47.602;9.886;2023-02-22T03:42:23;92669.41;;;4.14;54.91
59289;BME280;45056;47.602;9.886;2023-02-22T03:44:59;92663.69;;;4.12;54.89
59289;BME280;45056;47.602;9.886;2023-02-22T03:47:36;92664.84;;;4.11;55.15
59289;BME280;45056;47.602;9.886;2023-02-22T03:50:11;92669.13;;;4.08;55.18
59289;BME280;45056;47.602;9.886;2023-02-22T03:52:45;92672.63;;;4.05;54.95
59289;BME280;45056;47.602;9.886;2023-02-22T03:55:15;92677.66;;;4.03;54.84
59289;BME280;45056;47.602;9.886;2023-02-22T03:57:47;92667.28;;;4.01;54.77
59289;BME280;45056;47.602;9.886;2023-02-22T04:00:21;92668.84;;;3.99;55.07
59289;BME280;45056;47.602;9.886;2023-02-22T04:02:51;92663.13;;;3.97;55.09
59289;BME280;45056;47.602;9.886;2023-02-22T04:05:20;92669.28;;;3.97;54.78
59289;BME280;45056;47.602;9.886;2023-02-22T04:07:52;92666.16;;;3.99;54.84
59289;BME280;45056;47.602;9.886;2023-02-22T04:10:20;92667.69;;;4.00;54.89
59289;BME280;45056;47.602;9.886;2023-02-22T04:12:49;92661.56;;;3.99;54.64
59289;BME280;45056;47.602;9.886;2023-02-22T04:15:21;92673.13;;;3.96;54.77
59289;BME280;45056;47.602;9.886;2023-02-22T04:17:50;92666.28;;;3.92;55.09
59289;BME280;45056;47.602;9.886;2023-02-22T04:20:19;92667.09;;;3.88;55.16
59289;BME280;45056;47.602;9.886;2023-02-22T04:22:53;92664.03;;;3.86;55.07
59289;BME280;45056;47.602;9.886;2023-02-22T04:25:22;92660.56;;;3.86;54.92
59289;BME280;45056;47.602;9.886;2023-02-22T04:27:51;92663.31;;;3.82;55.02
59289;BME280;45056;47.602;9.886;2023-02-22T04:30:20;92661.03;;;3.81;54.96
59289;BME280;45056;47.602;9.886;2023-02-22T04:32:48;92661.84;;;3.78;54.98
59289;BME280;45056;47.602;9.886;2023-02-22T04:35:16;92659.94;;;3.78;54.95
59289;BME280;45056;47.602;9.886;2023-02-22T04:37:45;92663.78;;;3.77;55.17
59289;BME280;45056;47.602;9.886;2023-02-22T04:40:16;92657.97;;;3.79;55.24
59289;BME280;45056;47.602;9.886;2023-02-22T04:42:44;92661.84;;;3.78;55.15
59289;BME280;45056;47.602;9.886;2023-02-22T04:45:12;92660.66;;;3.79;55.18
59289;BME280;45056;47.602;9.886;2023-02-22T04:47:40;92657.22;;;3.78;55.14
59289;BME280;45056;47.602;9.886;2023-02-22T04:50:11;92650.72;;;3.75;55.10
59289;BME280;45056;47.602;9.886;2023-02-22T04:52:39;92652.66;;;3.75;55.27
59289;BME280;45056;47.602;9.886;2023-02-22T04:55:08;92644.19;;;3.73;54.82
59289;BME280;45056;47.602;9.886;2023-02-22T04:57:37;92656.13;;;3.72;55.03
59289;BME280;45056;47.602;9.886;2023-02-22T05:00:07;92647.34;;;3.68;54.92
59289;BME280;45056;47.602;9.886;2023-02-22T05:02:39;92648.97;;;3.61;55.13
59289;BME280;45056;47.602;9.886;2023-02-22T05:05:09;92648.63;;;3.59;55.20
59289;BME280;45056;47.602;9.886;2023-02-22T05:07:42;92644.75;;;3.60;55.28
59289;BME280;45056;47.602;9.886;2023-02-22T05:12:45;92649.78;;;3.58;55.64
59289;BME280;45056;47.602;9.886;2023-02-22T05:15:17;92643.28;;;3.56;55.36
59289;BME280;45056;47.602;9.886;2023-02-22T05:17:51;92646.38;;;3.54;55.35
59289;BME280;45056;47.602;9.886;2023-02-22T05:20:23;92648.72;;;3.52;55.46
59289;BME280;45056;47.602;9.886;2023-02-22T05:22:54;92647.19;;;3.51;55.46
59289;BME280;45056;47.602;9.886;2023-02-22T05:25:23;92646.03;;;3.52;55.29
59289;BME280;45056;47.602;9.886;2023-02-22T05:27:55;92644.50;;;3.51;55.41
59289;BME280;45056;47.602;9.886;2023-02-22T05:30:27;92636.00;;;3.53;55.39
59289;BME280;45056;47.602;9.886;2023-02-22T05:32:57;92642.16;;;3.53;55.59
59289;BME280;45056;47.602;9.886;2023-02-22T05:35:26;92645.22;;;3.55;55.46
59289;BME280;45056;47.602;9.886;2023-02-22T05:37:55;92646.38;;;3.54;55.13
59289;BME280;45056;47.602;9.886;2023-02-22T05:40:25;92640.63;;;3.52;55.45
59289;BME280;45056;47.602;9.886;2023-02-22T05:42:56;92643.72;;;3.51;55.41
59289;BME280;45056;47.602;9.886;2023-02-22T05:45:27;92643.31;;;3.52;55.20
59289;BME280;45056;47.602;9.886;2023-02-22T05:47:55;92642.97;;;3.50;55.19
59289;BME280;45056;47.602;9.886;2023-02-22T05:50:24;92647.22;;;3.47;55.41
59289;BME280;45056;47.602;9.886;2023-02-22T05:52:54;92648.38;;;3.46;55.12
59289;BME280;45056;47.602;9.886;2023-02-22T05:55:23;92650.34;;;3.42;55.43
59289;BME280;45056;47.602;9.886;2023-02-22T05:57:52;92650.00;;;3.40;55.50
59289;BME280;45056;47.602;9.886;2023-02-22T06:00:24;92651.56;;;3.38;55.40
59289;BME280;45056;47.602;9.886;2023-02-22T06:02:54;92645.44;;;3.37;55.39
59289;BME280;45056;47.602;9.886;2023-02-22T06:05:23;92645.00;;;3.39;55.41
59289;BME280;45056;47.602;9.886;2023-02-22T06:07:52;92645.44;;;3.37;55.21
59289;BME280;45056;47.602;9.886;2023-02-22T06:10:20;92646.59;;;3.36;55.46
59289;BME280;45056;47.602;9.886;2023-02-22T06:12:49;92642.78;;;3.34;55.31
59289;BME280;45056;47.602;9.886;2023-02-22T06:15:23;92648.94;;;3.30;55.16
59289;BME280;45056;47.602;9.886;2023-02-22T06:17:54;92650.53;;;3.28;55.40
59289;BME280;45056;47.602;9.886;2023-02-22T06:20:25;92654.75;;;3.29;55.53
59289;BME280;45056;47.602;9.886;2023-02-22T06:22:56;92663.19;;;3.31;55.65
59289;BME280;45056;47.602;9.886;2023-02-22T06:25:26;92660.84;;;3.33;55.71
59289;BME280;45056;47.602;9.886;2023-02-22T06:27:57;92661.22;;;3.35;55.43
59289;BME280;45056;47.602;9.886;2023-02-22T06:30:28;92663.84;;;3.39;55.03
59289;BME280;45056;47.602;9.886;2023-02-22T06:36:38;92664.06;;;3.52;54.66
59289;BME280;45056;47.602;9.886;2023-02-22T06:39:07;92672.84;;;3.56;54.91
59289;BME280;45056;47.602;9.886;2023-02-22T06:41:36;92668.97;;;3.60;54.95
59289;BME280;45056;47.602;9.886;2023-02-22T06:44:05;92675.78;;;3.69;55.02
59289;BME280;45056;47.602;9.886;2023-02-22T06:46:34;92677.25;;;3.77;54.60
59289;BME280;45056;47.602;9.886;2023-02-22T06:49:03;92680.94;;;3.87;54.48
59289;BME280;45056;47.602;9.886;2023-02-22T06:51:35;92683.13;;;3.96;54.93
59289;BME280;45056;47.602;9.886;2023-02-22T06:54:04;92680.69;;;4.05;54.86
59289;BME280;45056;47.602;9.886;2023-02-22T06:56:32;92683.66;;;4.14;54.91
59289;BME280;45056;47.602;9.886;2023-02-22T06:59:00;92689.28;;;4.24;54.49
59289;BME280;45056;47.602;9.886;2023-02-22T07:01:29;92677.25;;;4.32;54.44
59289;BME280;45056;47.602;9.886;2023-02-22T07:03:58;92684.41;;;4.42;54.35
59289;BME280;45056;47.602;9.886;2023-02-22T07:06:26;92679.66;;;4.50;54.14
59289;BME280;45056;47.602;9.886;2023-02-22T07:08:54;92685.34;;;4.56;54.22
59289;BME280;45056;47.602;9.886;2023-02-22T07:11:22;92685.66;;;4.61;54.39
59289;BME280;45056;47.602;9.886;2023-02-22T07:13:51;92679.41;;;4.68;54.12
59289;BME280;45056;47.602;9.886;2023-02-22T07:16:20;92688.91;;;4.76;54.32
59289;BME280;45056;47.602;9.886;2023-02-22T07:18:48;92686.47;;;4.82;54.87
59289;BME280;45056;47.602;9.886;2023-02-22T07:21:18;92691.00;;;4.89;54.45
59289;BME280;45056;47.602;9.886;2023-02-22T07:23:50;92694.00;;;4.95;54.62
59289;BME280;45056;47.602;9.886;2023-02-22T07:26:20;92692.69;;;5.03;54.78
59289;BME280;45056;47.602;9.886;2023-02-22T07:28:49;92687.50;;;5.12;54.57
59289;BME280;45056;47.602;9.886;2023-02-22T07:31:18;92692.03;;;5.19;54.37
59289;BME280;45056;47.602;9.886;2023-02-22T07:33:46;92690.38;;;5.25;54.06
59289;BME280;45056;47.602;9.886;2023-02-22T07:36:15;92693.31;;;5.34;54.34
59289;BME280;45056;47.602;9.886;2023-02-22T07:38:44;92687.00;;;5.41;53.57
59289;BME280;45056;47.602;9.886;2023-02-22T07:41:12;92688.81;;;5.48;53.34
59289;BME280;45056;47.602;9.886;2023-02-22T07:43:40;92680.91;;;5.57;53.40
59289;BME280;45056;47.602;9.886;2023-02-22T07:46:08;92682.66;;;5.68;53.59
59289;BME280;45056;47.602;9.886;2023-02-22T07:48:36;92685.16;;;5.78;53.99
59289;BME280;45056;47.602;9.886;2023-02-22T07:51:05;92691.47;;;5.88;53.79
59289;BME280;45056;47.602;9.886;2023-02-22T07:53:33;92682.06;;;5.97;53.97
59289;BME280;45056;47.602;9.886;2023-02-22T07:56:04;92678.81;;;6.05;54.47
59289;BME280;45056;47.602;9.886;2023-02-22T07:58:34;92682.47;;;6.15;54.62
59289;BME280;45056;47.602;9.886;2023-02-22T08:01:03;92674.97;;;6.23;54.44
59289;BME280;45056;47.602;9.886;2023-02-22T08:03:33;92670.53;;;6.33;54.55
59289;BME280;45056;47.602;9.886;2023-02-22T08:06:05;92665.63;;;6.44;54.06
59289;BME280;45056;47.602;9.886;2023-02-22T08:08:34;92668.09;;;6.55;53.86
59289;BME280;45056;47.602;9.886;2023-02-22T08:11:04;92669.34;;;6.67;54.00
59289;BME280;45056;47.602;9.886;2023-02-22T08:13:32;92670.63;;;6.79;53.48
59289;BME280;45056;47.602;9.886;2023-02-22T08:16:00;92656.84;;;6.90;53.15
59289;BME280;45056;47.602;9.886;2023-02-22T08:18:29;92661.97;;;7.01;52.83
59289;BME280;45056;47.602;9.886;2023-02-22T08:20:57;92665.50;;;7.14;52.28
59289;BME280;45056;47.602;9.886;2023-02-22T08:23:25;92658.72;;;7.22;51.68
59289;BME280;45056;47.602;9.886;2023-02-22T08:25:54;92666.97;;;7.32;51.45
59289;BME280;45056;47.602;9.886;2023-02-22T08:28:23;92665.50;;;7.44;51.69
59289;BME280;45056;47.602;9.886;2023-02-22T08:30:52;92663.63;;;7.57;51.65
59289;BME280;45056;47.602;9.886;2023-02-22T08:33:20;92665.91;;;7.72;51.97
59289;BME280;45056;47.602;9.886;2023-02-22T08:35:48;92663.56;;;7.87;52.50
59289;BME280;45056;47.602;9.886;2023-02-22T08:38:19;92668.13;;;8.03;52.81
59289;BME280;45056;47.602;9.886;2023-02-22T08:40:49;92665.69;;;8.21;52.90
59289;BME280;45056;47.602;9.886;2023-02-22T08:43:19;92663.16;;;8.40;52.71
59289;BME280;45056;47.602;9.886;2023-02-22T08:45:49;92664.63;;;8.58;52.87
59289;BME280;45056;47.602;9.886;2023-02-22T08:48:18;92659.06;;;8.74;52.72
59289;BME280;45056;47.602;9.886;2023-02-22T08:50:46;92659.69;;;8.91;52.66
59289;BME280;45056;47.602;9.886;2023-02-22T08:53:16;92663.75;;;9.09;51.88
59289;BME280;45056;47.602;9.886;2023-02-22T08:55:44;92658.63;;;9.24;51.15
59289;BME280;45056;47.602;9.886;2023-02-22T08:58:12;92658.16;;;9.38;50.33
59289;BME280;45056;47.602;9.886;2023-02-22T09:00:42;92664.59;;;9.54;50.29
59289;BME280;45056;47.602;9.886;2023-02-22T09:03:13;92659.41;;;9.69;49.32
59289;BME280;45056;47.602;9.886;2023-02-22T09:05:43;92658.78;;;9.87;47.88
59289;BME280;45056;47.602;9.886;2023-02-22T09:08:12;92665.06;;;10.06;46.38
59289;BME280;45056;47.602;9.886;2023-02-22T09:10:41;92654.31;;;10.25;44.36
59289;BME280;45056;47.602;9.886;2023-02-22T09:13:11;92650.63;;;10.41;44.27
59289;BME280;45056;47.602;9.886;2023-02-22T09:15:39;92655.50;;;10.56;44.26
59289;BME280;45056;47.602;9.886;2023-02-22T09:18:12;92649.94;;;10.68;43.65
59289;BME280;45056;47.602;9.886;2023-02-22T09:20:41;92651.34;;;10.82;43.83
59289;BME280;45056;47.602;9.886;2023-02-22T09:23:09;92644.75;;;10.93;43.41
59289;BME280;45056;47.602;9.886;2023-02-22T09:25:37;92642.19;;;11.08;43.31
59289;BME280;45056;47.602;9.886;2023-02-22T09:28:06;92644.91;;;11.26;42.09
59289;BME280;45056;47.602;9.886;2023-02-22T09:30:35;92639.19;;;11.52;41.78
59289;BME280;45056;47.602;9.886;2023-02-22T09:33:09;92642.47;;;11.84;40.50
59289;BME280;45056;47.602;9.886;2023-02-22T09:35:40;92644.09;;;12.10;38.96
59289;BME280;45056;47.602;9.886;2023-02-22T09:38:13;92634.97;;;12.32;37.81
59289;BME280;45056;47.602;9.886;2023-02-22T09:40:48;92637.63;;;12.50;36.66
59289;BME280;45056;47.602;9.886;2023-02-22T09:43:38;92640.09;;;12.73;36.17
59289;BME280;45056;47.602;9.886;2023-02-22T09:46:22;92640.00;;;12.91;35.78
59289;BME280;45056;47.602;9.886;2023-02-22T09:49:04;92639.59;;;13.08;35.43
59289;BME280;45056;47.602;9.886;2023-02-22T09:51:43;92639.38;;;13.21;34.91
59289;BME280;45056;47.602;9.886;2023-02-22T09:54:21;92635.34;;;13.31;34.36
59289;BME280;45056;47.602;9.886;2023-02-22T09:56:59;92632.09;;;13.42;33.43
59289;BME280;45056;47.602;9.886;2023-02-22T09:59:38;92642.22;;;13.51;33.87
59289;BME280;45056;47.602;9.886;2023-02-22T10:02:20;92636.66;;;13.60;33.69
59289;BME280;45056;47.602;9.886;2023-02-22T10:05:03;92638.88;;;13.71;34.21
59289;BME280;45056;47.602;9.886;2023-02-22T10:07:47;92632.84;;;13.82;34.10
59289;BME280;45056;47.602;9.886;2023-02-22T10:10:22;92636.44;;;13.88;34.32
59289;BME280;45056;47.602;9.886;2023-02-22T10:13:01;92639.94;;;13.89;33.67
59289;BME280;45056;47.602;9.886;2023-02-22T10:15:49;92631.63;;;13.83;33.60
59289;BME280;45056;47.602;9.886;2023-02-22T10:18:54;92638.78;;;13.80;33.71
59289;BME280;45056;47.602;9.886;2023-02-22T10:21:52;92642.00;;;13.79;33.66
59289;BME280;45056;47.602;9.886;2023-02-22T10:24:42;92643.22;;;13.78;33.60
59289;BME280;45056;47.602;9.886;2023-02-22T10:27:22;92636.53;;;13.79;33.65
59289;BME280;45056;47.602;9.886;2023-02-22T10:30:03;92640.47;;;13.78;33.92
59289;BME280;45056;47.602;9.886;2023-02-22T10:32:40;92636.53;;;13.79;34.50
59289;BME280;45056;47.602;9.886;2023-02-22T10:35:20;92633.31;;;13.80;34.40
59289;BME280;45056;47.602;9.886;2023-02-22T10:37:56;92634.06;;;13.81;34.97
59289;BME280;45056;47.602;9.886;2023-02-22T10:40:30;92634.06;;;13.81;34.64
59289;BME280;45056;47.602;9.886;2023-02-22T10:43:03;92629.63;;;13.83;34.81
59289;BME280;45056;47.602;9.886;2023-02-22T10:45:34;92627.94;;;13.86;36.13
59289;BME280;45056;47.602;9.886;2023-02-22T10:48:05;92634.91;;;13.87;36.90
59289;BME280;45056;47.602;9.886;2023-02-22T10:50:39;92642.00;;;13.94;36.95
59289;BME280;45056;47.602;9.886;2023-02-22T10:53:11;92633.88;;;13.99;37.01
59289;BME280;45056;47.602;9.886;2023-02-22T10:56:05;92631.06;;;14.09;37.34
59289;BME280;45056;47.602;9.886;2023-02-22T10:58:43;92635.03;;;14.23;37.70
59289;BME280;45056;47.602;9.886;2023-02-22T11:01:37;92639.00;;;14.37;37.76
59289;BME280;45056;47.602;9.886;2023-02-22T11:04:11;92636.88;;;14.47;38.10
59289;BME280;45056;47.602;9.886;2023-02-22T11:06:44;92630.09;;;14.42;38.25
59289;BME280;45056;47.602;9.886;2023-02-22T11:09:16;92626.53;;;14.36;38.64
59289;BME280;45056;47.602;9.886;2023-02-22T11:11:49;92629.19;;;14.30;38.86
59289;BME280;45056;47.602;9.886;2023-02-22T11:14:33;92624.84;;;14.23;39.39
59289;BME280;45056;47.602;9.886;2023-02-22T11:17:07;92614.56;;;14.18;39.75
59289;BME280;45056;47.602;9.886;2023-02-22T11:19:46;92619.56;;;14.20;40.26
59289;BME280;45056;47.602;9.886;2023-02-22T11:22:22;92617.38;;;14.24;39.99
59289;BME280;45056;47.602;9.886;2023-02-22T11:24:58;92611.53;;;14.31;40.05
59289;BME280;45056;47.602;9.886;2023-02-22T11:27:34;92609.44;;;14.41;39.67
59289;BME280;45056;47.602;9.886;2023-02-22T11:30:17;92610.00;;;14.45;39.78
59289;BME280;45056;47.602;9.886;2023-02-22T11:32:53;92597.53;;;14.44;39.63
59289;BME280;45056;47.602;9.886;2023-02-22T11:35:34;92606.59;;;14.50;40.27
59289;BME280;45056;47.602;9.886;2023-02-22T11:38:16;92599.97;;;14.57;39.91
59289;BME280;45056;47.602;9.886;2023-02-22T11:41:09;92591.81;;;14.63;39.96
59289;BME280;45056;47.602;9.886;2023-02-22T11:43:42;92587.00;;;14.73;39.41
59289;BME280;45056;47.602;9.886;2023-02-22T11:46:13;92585.47;;;14.86;38.87
59289;BME280;45056;47.602;9.886;2023-02-22T11:48:55;92583.16;;;15.00;39.56
59289;BME280;45056;47.602;9.886;2023-02-22T11:51:41;92581.59;;;15.14;38.90
59289;BME280;45056;47.602;9.886;2023-02-22T11:54:38;92585.34;;;15.17;38.86
59289;BME280;45056;47.602;9.886;2023-02-22T11:57:41;92581.34;;;15.18;39.11
59289;BME280;45056;47.602;9.886;2023-02-22T12:00:29;92573.69;;;15.22;38.91
59289;BME280;45056;47.602;9.886;2023-02-22T12:03:46;92573.75;;;15.27;38.97
59289;BME280;45056;47.602;9.886;2023-02-22T12:06:35;92570.31;;;15.33;38.82
59289;BME280;45056;47.602;9.886;2023-02-22T12:09:16;92568.34;;;15.33;38.80
59289;BME280;45056;47.602;9.886;2023-02-22T12:12:03;92573.06;;;15.33;38.88
59289;BME280;45056;47.602;9.886;2023-02-22T12:14:50;92570.53;;;15.29;39.08
59289;BME280;45056;47.602;9.886;2023-02-22T12:17:46;92566.78;;;15.26;38.89
59289;BME280;45056;47.602;9.886;2023-02-22T12:20:23;92561.22;;;15.21;38.73
59289;BME280;45056;47.602;9.886;2023-02-22T12:23:05;92569.31;;;15.30;39.30
59289;BME280;45056;47.602;9.886;2023-02-22T12:25:55;92559.06;;;15.51;38.93
59289;BME280;45056;47.602;9.886;2023-02-22T12:28:33;92557.03;;;15.72;38.72
59289;BME280;45056;47.602;9.886;2023-02-22T12:31:17;92559.59;;;15.82;37.40
59289;BME280;45056;47.602;9.886;2023-02-22T12:33:57;92557.75;;;15.73;37.61
59289;BME280;45056;47.602;9.886;2023-02-22T12:36:40;92573.91;;;15.65;37.40
59289;BME280;45056;47.602;9.886;2023-02-22T12:39:26;92564.06;;;15.53;37.62
59289;BME280;45056;47.602;9.886;2023-02-22T12:42:12;92566.25;;;15.49;38.00
59289;BME280;45056;47.602;9.886;2023-02-22T12:44:51;92562.81;;;15.54;37.91
59289;BME280;45056;47.602;9.886;2023-02-22T12:47:30;92552.25;;;15.67;38.08
59289;BME280;45056;47.602;9.886;2023-02-22T12:50:11;92557.88;;;15.84;38.04
59289;BME280;45056;47.602;9.886;2023-02-22T12:52:52;92556.56;;;16.00;37.39
59289;BME280;45056;47.602;9.886;2023-02-22T12:55:33;92557.09;;;16.05;37.31
59289;BME280;45056;47.602;9.886;2023-02-22T12:58:19;92551.50;;;15.93;37.17
59289;BME280;45056;47.602;9.886;2023-02-22T13:00:58;92551.09;;;15.80;37.61
59289;BME280;45056;47.602;9.886;2023-02-22T13:03:35;92552.97;;;15.68;37.76
59289;BME280;45056;47.602;9.886;2023-02-22T13:06:20;92562.44;;;15.67;38.25
59289;BME280;45056;47.602;9.886;2023-02-22T13:09:14;92545.34;;;15.78;38.60
59289;BME280;45056;47.602;9.886;2023-02-22T13:12:06;92545.06;;;15.96;38.82
59289;BME280;45056;47.602;9.886;2023-02-22T13:14:53;92546.16;;;16.10;38.13
59289;BME280;45056;47.602;9.886;2023-02-22T13:17:35;92547.94;;;16.19;37.68
59289;BME280;45056;47.602;9.886;2023-02-22T13:20:16;92546.22;;;16.22;38.10
59289;BME280;45056;47.602;9.886;2023-02-22T13:22:57;92551.78;;;16.27;37.86
59289;BME280;45056;47.602;9.886;2023-02-22T13:25:37;92546.09;;;16.37;37.67
59289;BME280;45056;47.602;9.886;2023-02-22T13:28:27;92545.63;;;16.44;36.80
59289;BME280;45056;47.602;9.886;2023-02-22T13:31:16;92549.63;;;16.43;37.18
59289;BME280;45056;47.602;9.886;2023-02-22T13:34:19;92544.63;;;16.41;37.57
59289;BME280;45056;47.602;9.886;2023-02-22T13:37:25;92545.38;;;16.42;37.46
59289;BME280;45056;47.602;9.886;2023-02-22T13:40:43;92538.13;;;16.39;37.88
59289;BME280;45056;47.602;9.886;2023-02-22T13:43:37;92539.06;;;16.30;37.78
59289;BME280;45056;47.602;9.886;2023-02-22T13:46:43;92544.22;;;16.17;38.11
59289;BME280;45056;47.602;9.886;2023-02-22T13:49:53;92543.28;;;15.93;38.51
59289;BME280;45056;47.602;9.886;2023-02-22T13:52:45;92540.66;;;15.84;38.89
59289;BME280;45056;47.602;9.886;2023-02-22T13:55:21;92541.09;;;15.77;39.39
59289;BME280;45056;47.602;9.886;2023-02-22T13:58:01;92545.25;;;15.66;39.12
59289;BME280;45056;47.602;9.886;2023-02-22T14:00:46;92540.75;;;15.63;39.82